Time;durP1;ratioP1;P1;durP2;ratioP2;P2;SDS_P1;SDS_P2;PMS_P1;PMS_P2;Temp;Humidity;BMP_temperature;BMP_pressure;BME280_temperature;BME280_humidity;BME280_pressure;Samples;Min_cycle;Max_cycle;Signal;HPM_P1;HPM_P2
2022/01/09 00:00:33;;;;;;;1.30;1.20;;;;;;;;;;5154095;27;20266;-89
2022/01/09 00:03:01;;;;;;;1.83;1.50;;;;;;;;;;5154189;27;20193;-88
2022/01/09 00:05:29;;;;;;;3.10;1.60;;;;;;;;;;5154851;27;20580;-89
2022/01/09 00:07:56;;;;;;;1.60;1.27;;;;;;;;;;5154616;27;20194;-89
2022/01/09 00:10:26;;;;;;;1.77;1.43;;;;;;;;;;5154091;27;20194;-89
2022/01/09 00:12:54;;;;;;;1.67;1.30;;;;;;;;;;5154496;27;20237;-89
2022/01/09 00:15:22;;;;;;;1.10;1.00;;;;;;;;;;5154129;27;20222;-88
2022/01/09 00:17:49;;;;;;;1.93;1.60;;;;;;;;;;5155862;27;20233;-89
2022/01/09 00:20:16;;;;;;;1.73;1.53;;;;;;;;;;5158347;27;20224;-88
2022/01/09 00:22:46;;;;;;;1.37;1.27;;;;;;;;;;5158067;27;20198;-88
2022/01/09 00:25:15;;;;;;;1.40;1.30;;;;;;;;;;5157996;27;20190;-88
2022/01/09 00:27:43;;;;;;;1.13;1.07;;;;;;;;;;5157312;27;20198;-88
2022/01/09 00:30:13;;;;;;;1.70;1.60;;;;;;;;;;5157919;27;20234;-88
2022/01/09 00:32:40;;;;;;;1.70;1.60;;;;;;;;;;5157989;27;20196;-88
2022/01/09 00:35:09;;;;;;;8.13;2.43;;;;;;;;;;5157761;27;20194;-88
2022/01/09 00:37:37;;;;;;;2.27;2.07;;;;;;;;;;5158069;27;20570;-88
2022/01/09 00:40:06;;;;;;;2.83;2.17;;;;;;;;;;5157554;27;20308;-88
2022/01/09 00:42:33;;;;;;;3.20;2.20;;;;;;;;;;5157795;27;20274;-89
2022/01/09 00:45:01;;;;;;;2.13;1.90;;;;;;;;;;5157642;27;20233;-88
2022/01/09 00:47:29;;;;;;;3.00;2.00;;;;;;;;;;5157676;27;20195;-88
2022/01/09 00:49:58;;;;;;;3.20;2.03;;;;;;;;;;5157678;27;20186;-89
2022/01/09 00:52:25;;;;;;;4.53;2.87;;;;;;;;;;5157743;27;20258;-88
2022/01/09 00:54:53;;;;;;;13.10;3.33;;;;;;;;;;5157475;27;20650;-88
2022/01/09 00:57:20;;;;;;;9.90;2.97;;;;;;;;;;5157554;27;20658;-88
2022/01/09 00:59:48;;;;;;;3.30;2.47;;;;;;;;;;5157348;27;20237;-88
2022/01/09 01:02:15;;;;;;;3.53;2.43;;;;;;;;;;5157356;27;20194;-88
2022/01/09 01:04:45;;;;;;;38.63;5.60;;;;;;;;;;5157375;27;20689;-88
2022/01/09 01:07:12;;;;;;;16.23;3.13;;;;;;;;;;5157269;27;20243;-88
2022/01/09 01:09:40;;;;;;;22.63;4.20;;;;;;;;;;5157350;27;20276;-90
2022/01/09 01:12:08;;;;;;;18.53;3.33;;;;;;;;;;5157289;27;20213;-89
2022/01/09 01:14:36;;;;;;;10.73;2.67;;;;;;;;;;5157268;27;20194;-89
2022/01/09 01:17:04;;;;;;;9.00;2.60;;;;;;;;;;5157311;27;20277;-90
2022/01/09 01:19:32;;;;;;;3.37;2.40;;;;;;;;;;5157219;27;20200;-89
2022/01/09 01:22:01;;;;;;;4.27;2.40;;;;;;;;;;5157209;27;20186;-90
2022/01/09 01:24:29;;;;;;;5.23;2.20;;;;;;;;;;5157048;27;20202;-89
2022/01/09 01:26:56;;;;;;;2.93;2.30;;;;;;;;;;5157084;27;20198;-89
2022/01/09 01:29:24;;;;;;;7.67;3.50;;;;;;;;;;5156387;27;20726;-89
2022/01/09 01:31:51;;;;;;;7.33;3.67;;;;;;;;;;5157253;27;20191;-89
2022/01/09 01:34:19;;;;;;;6.30;2.83;;;;;;;;;;5156625;27;20190;-90
2022/01/09 01:36:46;;;;;;;67.57;12.77;;;;;;;;;;5156728;27;20198;-89
2022/01/09 01:39:15;;;;;;;209.57;29.93;;;;;;;;;;5156855;27;20636;-89
2022/01/09 01:41:42;;;;;;;239.17;35.47;;;;;;;;;;5156899;27;20235;-89
2022/01/09 01:44:11;;;;;;;39.53;6.47;;;;;;;;;;5156731;27;20284;-89
2022/01/09 01:46:39;;;;;;;57.83;8.47;;;;;;;;;;5156243;27;20226;-88
2022/01/09 01:49:07;;;;;;;109.77;12.27;;;;;;;;;;5156396;27;20246;-89
2022/01/09 01:51:35;;;;;;;58.40;7.30;;;;;;;;;;5156501;27;20193;-87
2022/01/09 01:54:03;;;;;;;122.10;14.73;;;;;;;;;;5156631;27;20685;-88
2022/01/09 01:56:32;;;;;;;36.20;4.80;;;;;;;;;;5156537;27;20200;-89
2022/01/09 01:59:00;;;;;;;49.00;8.13;;;;;;;;;;5156595;27;20277;-88
2022/01/09 02:01:27;;;;;;;47.73;6.13;;;;;;;;;;5156336;27;20304;-88
2022/01/09 02:03:55;;;;;;;31.60;4.27;;;;;;;;;;5156514;27;20266;-88
2022/01/09 02:06:23;;;;;;;118.40;19.23;;;;;;;;;;5156677;27;20247;-89
2022/01/09 02:08:50;;;;;;;72.43;11.07;;;;;;;;;;5156109;27;20247;-89
2022/01/09 02:11:18;;;;;;;41.47;5.77;;;;;;;;;;5156173;27;20197;-89
2022/01/09 02:13:47;;;;;;;15.97;5.00;;;;;;;;;;5155841;27;20193;-89
2022/01/09 02:16:18;;;;;;;22.30;6.13;;;;;;;;;;5156261;27;20186;-88
2022/01/09 02:18:46;;;;;;;43.03;5.93;;;;;;;;;;5155986;27;20249;-89
2022/01/09 02:21:16;;;;;;;30.27;5.97;;;;;;;;;;5155686;27;20242;-89
2022/01/09 02:23:45;;;;;;;11.63;4.07;;;;;;;;;;5156079;27;20202;-89
2022/01/09 02:26:13;;;;;;;34.77;6.83;;;;;;;;;;5155784;27;20198;-89
2022/01/09 02:28:40;;;;;;;8.43;3.40;;;;;;;;;;5155892;27;20281;-89
2022/01/09 02:31:09;;;;;;;9.27;3.37;;;;;;;;;;5156041;27;20627;-88
2022/01/09 02:33:36;;;;;;;21.37;4.53;;;;;;;;;;5155895;27;20194;-89
2022/01/09 02:36:04;;;;;;;6.10;3.33;;;;;;;;;;5155504;27;20193;-89
2022/01/09 02:38:32;;;;;;;6.10;3.30;;;;;;;;;;5155397;27;20280;-89
2022/01/09 02:41:00;;;;;;;5.90;2.83;;;;;;;;;;5154893;27;20627;-87
2022/01/09 02:43:28;;;;;;;15.83;6.83;;;;;;;;;;5155318;27;20209;-88
2022/01/09 02:46:04;;;;;;;16.37;7.33;;;;;;;;;;5155239;27;20233;-89
2022/01/09 02:48:35;;;;;;;8.13;4.03;;;;;;;;;;5155333;27;20255;-88
2022/01/09 02:51:07;;;;;;;7.50;5.73;;;;;;;;;;5155234;27;20250;-89
2022/01/09 02:53:37;;;;;;;6.27;4.90;;;;;;;;;;5155665;27;20221;-89
2022/01/09 02:56:07;;;;;;;3.67;3.23;;;;;;;;;;5155295;27;20569;-89
2022/01/09 02:58:37;;;;;;;3.17;2.53;;;;;;;;;;5155117;27;20298;-89
2022/01/09 03:01:05;;;;;;;4.30;3.33;;;;;;;;;;5154989;27;20312;-90
2022/01/09 03:03:33;;;;;;;4.17;3.47;;;;;;;;;;5154969;27;20237;-88
2022/01/09 03:06:01;;;;;;;58.13;11.97;;;;;;;;;;5155304;27;20190;-88
2022/01/09 03:08:28;;;;;;;7.57;5.07;;;;;;;;;;5155046;27;20273;-88
2022/01/09 03:10:57;;;;;;;8.97;5.17;;;;;;;;;;5154792;27;20726;-88
2022/01/09 03:13:24;;;;;;;13.93;8.57;;;;;;;;;;5154726;27;20194;-88
2022/01/09 03:15:52;;;;;;;9.50;7.30;;;;;;;;;;5155168;27;20211;-89
2022/01/09 03:18:19;;;;;;;19.03;9.33;;;;;;;;;;5154912;27;20189;-88
2022/01/09 03:20:46;;;;;;;15.30;10.00;;;;;;;;;;5155143;27;20224;-88
2022/01/09 03:23:14;;;;;;;11.10;8.37;;;;;;;;;;5154735;27;20194;-88
2022/01/09 03:25:41;;;;;;;10.83;7.70;;;;;;;;;;5154910;27;20654;-88
2022/01/09 03:28:10;;;;;;;11.13;5.70;;;;;;;;;;5154593;27;20288;-88
2022/01/09 03:30:37;;;;;;;15.47;6.07;;;;;;;;;;5154426;27;20190;-88
2022/01/09 03:33:04;;;;;;;7.43;5.27;;;;;;;;;;5154849;27;20204;-88
2022/01/09 03:35:32;;;;;;;7.63;6.00;;;;;;;;;;5154478;27;20201;-88
2022/01/09 03:37:59;;;;;;;6.53;5.53;;;;;;;;;;5154751;27;20198;-88
2022/01/09 03:40:28;;;;;;;26.33;9.00;;;;;;;;;;5154490;27;20706;-88
2022/01/09 03:42:57;;;;;;;10.43;5.67;;;;;;;;;;5154879;27;20231;-87
2022/01/09 03:45:26;;;;;;;7.00;5.00;;;;;;;;;;5154174;27;20268;-89
2022/01/09 03:47:54;;;;;;;18.67;5.00;;;;;;;;;;5154523;27;20627;-88
2022/01/09 03:50:22;;;;;;;7.70;7.00;;;;;;;;;;5154373;27;20190;-88
2022/01/09 03:52:49;;;;;;;6.17;5.03;;;;;;;;;;5158064;27;20247;-88
2022/01/09 03:55:19;;;;;;;33.27;28.13;;;;;;;;;;5158576;27;20337;-88
2022/01/09 03:57:46;;;;;;;23.00;18.97;;;;;;;;;;5158616;27;20208;-89
2022/01/09 04:00:16;;;;;;;10.53;7.90;;;;;;;;;;5158459;27;20200;-88
2022/01/09 04:02:48;;;;;;;5.63;5.07;;;;;;;;;;5158724;27;20190;-89
2022/01/09 04:05:16;;;;;;;12.83;7.67;;;;;;;;;;5158745;27;20182;-88
2022/01/09 04:07:43;;;;;;;28.50;9.47;;;;;;;;;;5158512;27;20221;-89
2022/01/09 04:10:11;;;;;;;16.90;7.33;;;;;;;;;;5158415;27;20193;-88
2022/01/09 04:12:47;;;;;;;63.30;13.53;;;;;;;;;;5158228;27;20196;-89
2022/01/09 04:15:16;;;;;;;37.87;9.00;;;;;;;;;;5158296;27;20197;-88
2022/01/09 04:17:51;;;;;;;17.73;6.00;;;;;;;;;;5158274;27;20288;-88
2022/01/09 04:20:21;;;;;;;43.70;9.90;;;;;;;;;;5158412;27;20192;-89
2022/01/09 04:22:48;;;;;;;8.10;4.60;;;;;;;;;;5158108;27;20692;-88
2022/01/09 04:25:16;;;;;;;18.53;4.77;;;;;;;;;;5158074;27;20242;-88
2022/01/09 04:27:44;;;;;;;15.47;4.47;;;;;;;;;;5158163;27;20247;-88
2022/01/09 04:30:12;;;;;;;28.30;6.27;;;;;;;;;;5158498;27;20671;-89
2022/01/09 04:32:39;;;;;;;13.97;4.37;;;;;;;;;;5158476;27;20197;-88
2022/01/09 04:35:08;;;;;;;11.17;4.27;;;;;;;;;;5158207;27;20202;-88
2022/01/09 04:37:37;;;;;;;6.57;3.83;;;;;;;;;;5157794;27;20228;-89
2022/01/09 04:40:07;;;;;;;4.10;3.43;;;;;;;;;;5157666;27;20201;-88
2022/01/09 04:42:40;;;;;;;4.53;3.70;;;;;;;;;;5157644;27;20314;-89
2022/01/09 04:45:09;;;;;;;3.53;3.17;;;;;;;;;;5157717;27;20627;-88
2022/01/09 04:47:36;;;;;;;7.37;5.37;;;;;;;;;;5157609;27;20662;-88
2022/01/09 04:50:04;;;;;;;32.90;8.53;;;;;;;;;;5157625;27;20202;-88
2022/01/09 04:52:35;;;;;;;26.27;7.23;;;;;;;;;;5157631;27;20318;-88
2022/01/09 04:55:05;;;;;;;34.93;14.30;;;;;;;;;;5157900;27;20186;-88
2022/01/09 04:57:32;;;;;;;62.00;15.53;;;;;;;;;;5157359;27;20293;-88
2022/01/09 04:59:59;;;;;;;58.47;20.73;;;;;;;;;;5157362;27;20680;-88
2022/01/09 05:02:27;;;;;;;92.90;19.30;;;;;;;;;;5156989;27;20228;-88
2022/01/09 05:04:54;;;;;;;54.70;16.50;;;;;;;;;;5157040;27;20632;-88
2022/01/09 05:07:22;;;;;;;23.03;6.80;;;;;;;;;;5157169;27;20190;-88
2022/01/09 05:09:49;;;;;;;47.47;11.60;;;;;;;;;;5157063;27;20293;-88
2022/01/09 05:12:18;;;;;;;26.03;7.87;;;;;;;;;;5157390;27;20194;-88
2022/01/09 05:14:45;;;;;;;52.57;11.80;;;;;;;;;;5157278;27;20217;-88
2022/01/09 05:17:13;;;;;;;35.97;14.97;;;;;;;;;;5157289;27;20190;-88
2022/01/09 05:19:40;;;;;;;72.43;20.67;;;;;;;;;;5157197;27;20202;-88
2022/01/09 05:22:09;;;;;;;96.30;37.33;;;;;;;;;;5156772;27;20222;-88
2022/01/09 05:24:36;;;;;;;74.97;31.23;;;;;;;;;;5156920;27;20198;-89
2022/01/09 05:27:04;;;;;;;37.47;22.03;;;;;;;;;;5157141;27;20198;-89
2022/01/09 05:29:33;;;;;;;21.90;12.90;;;;;;;;;;5156781;27;20281;-89
2022/01/09 05:32:00;;;;;;;22.40;15.17;;;;;;;;;;5157080;27;20233;-89
2022/01/09 05:34:27;;;;;;;23.57;11.60;;;;;;;;;;5156602;27;20189;-89
2022/01/09 05:36:54;;;;;;;25.63;14.97;;;;;;;;;;5156718;27;20194;-89
2022/01/09 05:39:22;;;;;;;28.90;17.93;;;;;;;;;;5156884;27;20194;-89
2022/01/09 05:41:50;;;;;;;26.40;13.03;;;;;;;;;;5156662;27;20305;-88
2022/01/09 05:44:19;;;;;;;20.73;11.00;;;;;;;;;;5156511;27;20190;-88
2022/01/09 05:46:47;;;;;;;17.70;10.63;;;;;;;;;;5156789;27;20572;-88
2022/01/09 05:49:15;;;;;;;20.13;7.73;;;;;;;;;;5156743;27;20284;-88
2022/01/09 05:51:42;;;;;;;28.50;10.77;;;;;;;;;;5156737;27;20240;-89
2022/01/09 05:54:10;;;;;;;18.37;8.73;;;;;;;;;;5156583;27;20190;-89
2022/01/09 05:56:37;;;;;;;34.13;8.67;;;;;;;;;;5156389;27;20201;-88
2022/01/09 05:59:05;;;;;;;25.40;7.77;;;;;;;;;;5156973;27;20213;-88
2022/01/09 06:01:32;;;;;;;42.67;11.27;;;;;;;;;;5156251;27;20221;-88
2022/01/09 06:04:01;;;;;;;42.53;11.30;;;;;;;;;;5156451;27;20194;-88
2022/01/09 06:06:28;;;;;;;20.90;13.57;;;;;;;;;;5156416;27;20282;-88
2022/01/09 06:08:56;;;;;;;27.57;13.67;;;;;;;;;;5156106;27;20216;-88
2022/01/09 06:11:23;;;;;;;19.17;12.03;;;;;;;;;;5156209;27;20207;-88
2022/01/09 06:13:51;;;;;;;26.27;12.20;;;;;;;;;;5156095;27;20243;-88
2022/01/09 06:16:18;;;;;;;23.63;10.27;;;;;;;;;;5154970;27;20692;-89
2022/01/09 06:18:45;;;;;;;19.23;12.33;;;;;;;;;;5155911;27;20186;-88
2022/01/09 06:21:14;;;;;;;24.93;16.40;;;;;;;;;;5155739;27;20221;-89
2022/01/09 06:23:41;;;;;;;72.87;16.60;;;;;;;;;;5156104;27;20658;-88
2022/01/09 06:26:09;;;;;;;58.57;11.83;;;;;;;;;;5155873;27;20197;-88
2022/01/09 06:28:36;;;;;;;95.03;13.87;;;;;;;;;;5155862;27;20194;-89
2022/01/09 06:31:03;;;;;;;49.53;11.37;;;;;;;;;;5155658;27;20242;-88
2022/01/09 06:33:31;;;;;;;38.83;14.27;;;;;;;;;;5138031;27;20296;-88
2022/01/09 06:35:58;;;;;;;31.77;12.10;;;;;;;;;;5134864;27;20206;-88
2022/01/09 06:38:27;;;;;;;11.83;7.07;;;;;;;;;;5134764;27;20205;-88
2022/01/09 06:40:55;;;;;;;10.43;7.30;;;;;;;;;;5132696;27;20230;-89
2022/01/09 06:43:22;;;;;;;32.47;10.97;;;;;;;;;;5134420;27;20222;-88
2022/01/09 06:45:49;;;;;;;25.03;14.73;;;;;;;;;;5134341;27;20222;-89
2022/01/09 06:48:16;;;;;;;25.03;20.07;;;;;;;;;;5134705;27;20259;-88
2022/01/09 06:50:44;;;;;;;16.00;13.53;;;;;;;;;;5134484;27;20191;-88
2022/01/09 06:53:11;;;;;;;20.67;17.23;;;;;;;;;;5134397;27;20216;-88
2022/01/09 06:55:40;;;;;;;33.10;29.00;;;;;;;;;;5134535;27;20556;-87
2022/01/09 06:58:07;;;;;;;48.10;17.00;;;;;;;;;;5134424;27;20554;-88
2022/01/09 07:00:40;;;;;;;33.97;16.80;;;;;;;;;;5134177;27;20207;-88
2022/01/09 07:03:07;;;;;;;24.23;16.43;;;;;;;;;;5133904;27;20306;-88
2022/01/09 07:05:35;;;;;;;16.07;12.77;;;;;;;;;;5134391;27;20278;-88
2022/01/09 07:08:02;;;;;;;15.80;11.70;;;;;;;;;;5134218;27;20194;-88
2022/01/09 07:10:29;;;;;;;18.70;13.50;;;;;;;;;;5134255;27;20198;-89
2022/01/09 07:12:58;;;;;;;42.73;20.43;;;;;;;;;;5134129;27;20810;-88
2022/01/09 07:15:25;;;;;;;46.53;16.27;;;;;;;;;;5133863;27;20194;-88
2022/01/09 07:17:53;;;;;;;22.60;13.10;;;;;;;;;;5134415;27;20191;-88
2022/01/09 07:20:20;;;;;;;48.67;34.73;;;;;;;;;;5145391;27;20635;-89
2022/01/09 07:22:48;;;;;;;52.27;38.07;;;;;;;;;;5154738;27;20214;-89
2022/01/09 07:25:15;;;;;;;60.13;45.93;;;;;;;;;;5154783;27;20193;-89
2022/01/09 07:27:43;;;;;;;70.17;29.23;;;;;;;;;;5154658;27;20268;-89
2022/01/09 07:30:12;;;;;;;28.03;19.57;;;;;;;;;;5154626;27;20678;-89
2022/01/09 07:32:40;;;;;;;21.00;16.80;;;;;;;;;;5154995;27;20193;-89
2022/01/09 07:35:09;;;;;;;16.23;11.60;;;;;;;;;;5152047;27;20190;-90
2022/01/09 07:37:36;;;;;;;30.40;14.70;;;;;;;;;;5138022;27;20201;-90
2022/01/09 07:40:05;;;;;;;28.73;13.77;;;;;;;;;;5147537;27;20190;-90
2022/01/09 07:42:33;;;;;;;61.83;11.57;;;;;;;;;;5154472;27;20214;-90
2022/01/09 07:45:00;;;;;;;75.13;13.23;;;;;;;;;;5154174;27;20241;-90
2022/01/09 07:47:30;;;;;;;45.63;23.83;;;;;;;;;;5154384;27;20197;-89
2022/01/09 07:49:58;;;;;;;61.30;28.70;;;;;;;;;;5154526;27;20674;-90
2022/01/09 07:52:26;;;;;;;49.83;36.00;;;;;;;;;;5154522;27;20208;-90
2022/01/09 07:54:53;;;;;;;43.23;27.83;;;;;;;;;;5154255;27;20206;-87
2022/01/09 07:57:21;;;;;;;90.27;21.20;;;;;;;;;;5154078;27;20194;-88
2022/01/09 07:59:48;;;;;;;35.37;13.83;;;;;;;;;;5153896;27;20198;-87
2022/01/09 08:02:15;;;;;;;28.77;11.47;;;;;;;;;;5153937;27;20218;-86
2022/01/09 08:04:44;;;;;;;35.17;22.10;;;;;;;;;;5154205;27;20182;-88
2022/01/09 08:07:11;;;;;;;31.13;15.77;;;;;;;;;;5154072;27;20204;-90
2022/01/09 08:09:39;;;;;;;17.47;10.63;;;;;;;;;;5154298;27;20204;-91
2022/01/09 08:12:10;;;;;;;13.83;7.97;;;;;;;;;;5154614;27;20229;-90
2022/01/09 08:14:38;;;;;;;16.53;14.30;;;;;;;;;;5154309;27;20602;-90
2022/01/09 08:17:06;;;;;;;23.33;20.93;;;;;;;;;;5154023;27;20198;-88
2022/01/09 08:19:35;;;;;;;31.20;27.93;;;;;;;;;;5153952;27;20269;-88
2022/01/09 08:22:04;;;;;;;7.93;7.03;;;;;;;;;;5154084;27;20218;-89
2022/01/09 08:24:32;;;;;;;6.77;5.10;;;;;;;;;;5154158;27;20198;-89
2022/01/09 08:27:00;;;;;;;8.90;5.33;;;;;;;;;;5154086;27;20193;-89
2022/01/09 08:29:28;;;;;;;26.13;21.57;;;;;;;;;;5154105;27;20194;-90
2022/01/09 08:31:55;;;;;;;16.43;14.67;;;;;;;;;;5154422;27;20587;-90
2022/01/09 08:34:22;;;;;;;9.00;6.90;;;;;;;;;;5154455;27;20185;-90
2022/01/09 08:36:50;;;;;;;6.00;5.27;;;;;;;;;;5153998;27;20186;-89
2022/01/09 08:39:19;;;;;;;18.60;16.37;;;;;;;;;;5156439;27;20209;-90
2022/01/09 08:41:48;;;;;;;13.33;11.43;;;;;;;;;;5158144;27;20296;-90
2022/01/09 08:44:16;;;;;;;19.83;8.17;;;;;;;;;;5157812;27;20192;-90
2022/01/09 08:46:43;;;;;;;8.20;6.53;;;;;;;;;;5157629;27;20205;-90
2022/01/09 08:49:10;;;;;;;7.33;6.67;;;;;;;;;;5157506;27;20226;-90
2022/01/09 08:51:40;;;;;;;7.07;5.53;;;;;;;;;;5153601;27;20241;-90
2022/01/09 08:54:08;;;;;;;14.23;11.37;;;;;;;;;;5136296;27;20201;-89
2022/01/09 08:56:39;;;;;;;14.57;7.37;;;;;;;;;;5136897;27;20202;-91
2022/01/09 08:59:06;;;;;;;7.50;6.57;;;;;;;;;;5137013;27;20198;-91
2022/01/09 09:01:34;;;;;;;12.37;11.07;;;;;;;;;;5137102;27;20636;-90
2022/01/09 09:04:01;;;;;;;52.67;11.60;;;;;;;;;;5136682;27;20305;-90
2022/01/09 09:06:29;;;;;;;26.70;24.13;;;;;;;;;;5136873;27;20224;-91
2022/01/09 09:08:56;;;;;;;12.47;11.17;;;;;;;;;;5136483;27;20197;-91
2022/01/09 09:11:23;;;;;;;13.33;11.83;;;;;;;;;;5136528;27;20203;-91
2022/01/09 09:13:52;;;;;;;22.20;19.97;;;;;;;;;;5136351;27;20205;-91
2022/01/09 09:16:19;;;;;;;14.37;12.93;;;;;;;;;;5136543;27;20198;-91
2022/01/09 09:18:48;;;;;;;14.60;13.33;;;;;;;;;;5136471;27;20222;-91
2022/01/09 09:21:16;;;;;;;11.33;10.33;;;;;;;;;;5136125;27;20205;-91
2022/01/09 09:23:43;;;;;;;8.50;7.73;;;;;;;;;;5136177;27;20280;-90
2022/01/09 09:26:11;;;;;;;10.73;9.77;;;;;;;;;;5136329;27;20222;-90
2022/01/09 09:28:39;;;;;;;7.93;7.23;;;;;;;;;;5136091;27;20194;-91
2022/01/09 09:31:08;;;;;;;3.50;3.10;;;;;;;;;;5136638;27;20199;-90
2022/01/09 09:33:35;;;;;;;5.73;3.73;;;;;;;;;;5136049;27;20592;-90
2022/01/09 09:36:03;;;;;;;3.23;2.93;;;;;;;;;;5136259;27;20198;-90
2022/01/09 09:38:31;;;;;;;5.60;5.10;;;;;;;;;;5136172;27;20190;-91
2022/01/09 09:40:59;;;;;;;6.10;4.47;;;;;;;;;;5135928;27;20197;-91
2022/01/09 09:43:26;;;;;;;20.50;6.83;;;;;;;;;;5135837;27;20238;-90
2022/01/09 09:45:54;;;;;;;33.60;6.97;;;;;;;;;;5135410;27;20226;-90
2022/01/09 09:48:23;;;;;;;4.97;4.57;;;;;;;;;;5135743;27;20186;-91
2022/01/09 09:50:51;;;;;;;22.37;4.97;;;;;;;;;;5135630;27;20218;-90
2022/01/09 09:53:18;;;;;;;8.97;7.87;;;;;;;;;;5135968;27;20198;-90
2022/01/09 09:55:48;;;;;;;25.40;20.80;;;;;;;;;;5136400;27;20199;-90
2022/01/09 09:58:16;;;;;;;37.00;33.47;;;;;;;;;;5135734;27;20187;-91
2022/01/09 10:00:44;;;;;;;21.73;19.73;;;;;;;;;;5135780;27;20194;-91
2022/01/09 10:03:11;;;;;;;7.40;6.70;;;;;;;;;;5136844;27;20214;-90
2022/01/09 10:05:40;;;;;;;5.20;4.70;;;;;;;;;;5135533;27;20194;-90
2022/01/09 10:08:10;;;;;;;14.60;7.27;;;;;;;;;;5135476;27;20234;-91
2022/01/09 10:10:39;;;;;;;4.13;3.83;;;;;;;;;;5135368;27;20202;-90
2022/01/09 10:13:08;;;;;;;5.80;5.30;;;;;;;;;;5135018;27;20191;-90
2022/01/09 10:15:46;;;;;;;10.03;9.13;;;;;;;;;;5135549;27;20591;-90
2022/01/09 10:18:13;;;;;;;15.33;14.13;;;;;;;;;;5135319;27;20187;-90
2022/01/09 10:20:42;;;;;;;6.83;6.33;;;;;;;;;;5135290;27;20231;-91
2022/01/09 10:23:10;;;;;;;8.87;8.13;;;;;;;;;;5134917;27;20272;-91
2022/01/09 10:25:38;;;;;;;5.40;4.90;;;;;;;;;;5134801;27;20198;-90
2022/01/09 10:28:09;;;;;;;5.03;4.63;;;;;;;;;;5135273;27;20753;-90
2022/01/09 10:30:40;;;;;;;8.83;8.13;;;;;;;;;;5134875;27;20215;-90
2022/01/09 10:33:09;;;;;;;10.10;9.27;;;;;;;;;;5134981;27;20183;-91
2022/01/09 10:35:39;;;;;;;9.30;8.40;;;;;;;;;;5134867;27;20222;-91
2022/01/09 10:38:19;;;;;;;10.33;8.37;;;;;;;;;;5134624;27;20206;-90
2022/01/09 10:40:49;;;;;;;9.33;8.53;;;;;;;;;;5134702;27;20179;-90
2022/01/09 10:43:18;;;;;;;10.83;9.93;;;;;;;;;;5134959;27;20222;-90
2022/01/09 10:45:49;;;;;;;10.97;9.87;;;;;;;;;;5134614;27;20229;-89
2022/01/09 10:48:19;;;;;;;6.63;6.10;;;;;;;;;;5134979;27;20178;-89
2022/01/09 10:50:47;;;;;;;4.67;4.27;;;;;;;;;;5134583;27;20186;-90
2022/01/09 10:53:22;;;;;;;11.90;10.90;;;;;;;;;;5134249;27;20194;-91
2022/01/09 10:56:08;;;;;;;6.40;5.43;;;;;;;;;;5134973;27;20632;-90
2022/01/09 10:58:39;;;;;;;5.90;5.30;;;;;;;;;;5134612;27;20198;-91
2022/01/09 11:01:18;;;;;;;5.37;4.87;;;;;;;;;;5148220;27;20205;-90
2022/01/09 11:03:47;;;;;;;5.07;4.67;;;;;;;;;;5155039;27;20270;-91
2022/01/09 11:06:14;;;;;;;6.90;6.20;;;;;;;;;;5155221;27;20254;-89
2022/01/09 11:08:44;;;;;;;5.60;5.20;;;;;;;;;;5155034;27;20185;-90
2022/01/09 11:11:19;;;;;;;5.53;5.03;;;;;;;;;;5155004;27;20284;-89
2022/01/09 11:13:48;;;;;;;5.13;4.63;;;;;;;;;;5154937;27;20630;-89
2022/01/09 11:16:34;;;;;;;4.70;4.20;;;;;;;;;;5154732;27;20197;-90
2022/01/09 11:19:07;;;;;;;5.60;5.10;;;;;;;;;;5155139;27;20631;-90
2022/01/09 11:21:35;;;;;;;5.90;5.07;;;;;;;;;;5154877;27;20196;-89
2022/01/09 11:24:30;;;;;;;5.80;5.30;;;;;;;;;;5154678;27;20712;-90
2022/01/09 11:27:01;;;;;;;4.60;4.30;;;;;;;;;;5154615;27;20659;-89
2022/01/09 11:29:33;;;;;;;6.97;6.27;;;;;;;;;;5154661;27;20325;-90
2022/01/09 11:32:10;;;;;;;8.37;7.43;;;;;;;;;;5154994;27;20196;-89
2022/01/09 11:34:49;;;;;;;8.33;7.53;;;;;;;;;;5154735;27;20202;-89
2022/01/09 11:37:25;;;;;;;7.40;6.70;;;;;;;;;;5154784;27;20193;-90
2022/01/09 11:39:54;;;;;;;4.77;4.27;;;;;;;;;;5154962;27;20628;-89
2022/01/09 11:42:21;;;;;;;7.00;6.40;;;;;;;;;;5154809;27;20725;-90
2022/01/09 11:44:50;;;;;;;6.63;6.03;;;;;;;;;;5154093;27;20678;-89
2022/01/09 11:47:18;;;;;;;6.47;5.90;;;;;;;;;;5154369;27;20182;-90
2022/01/09 11:50:07;;;;;;;6.77;6.03;;;;;;;;;;5154344;27;20197;-90
2022/01/09 11:52:34;;;;;;;5.30;4.80;;;;;;;;;;5154331;27;20201;-90
2022/01/09 11:55:05;;;;;;;7.13;5.80;;;;;;;;;;5154376;27;20733;-90
2022/01/09 11:57:37;;;;;;;6.23;5.63;;;;;;;;;;5154383;27;20197;-90
2022/01/09 12:00:07;;;;;;;7.67;6.97;;;;;;;;;;5154300;27;20250;-90
2022/01/09 12:02:38;;;;;;;7.83;7.13;;;;;;;;;;5154577;27;20190;-91
2022/01/09 12:05:10;;;;;;;6.77;6.17;;;;;;;;;;5154549;27;20181;-91
2022/01/09 12:08:05;;;;;;;7.77;6.97;;;;;;;;;;5154763;27;20658;-91
2022/01/09 12:10:54;;;;;;;4.80;4.43;;;;;;;;;;5154410;27;20209;-90
2022/01/09 12:13:43;;;;;;;5.47;5.07;;;;;;;;;;5157395;27;20281;-91
2022/01/09 12:16:26;;;;;;;8.20;7.40;;;;;;;;;;5154138;27;20201;-90
2022/01/09 12:18:53;;;;;;;7.90;7.20;;;;;;;;;;5158265;27;20220;-90
2022/01/09 12:21:51;;;;;;;6.17;5.23;;;;;;;;;;5158462;27;20212;-89
2022/01/09 12:24:45;;;;;;;16.13;13.53;;;;;;;;;;5158131;27;20229;-90
2022/01/09 12:27:46;;;;;;;35.40;31.60;;;;;;;;;;5158284;27;20206;-90
2022/01/09 12:30:44;;;;;;;30.23;27.33;;;;;;;;;;5158473;27;20216;-90
2022/01/09 12:33:14;;;;;;;19.67;17.83;;;;;;;;;;5158424;27;20186;-89
2022/01/09 12:35:43;;;;;;;16.90;15.20;;;;;;;;;;5158200;27;20213;-90
2022/01/09 12:38:15;;;;;;;28.20;25.33;;;;;;;;;;5157888;27;20194;-90
2022/01/09 12:40:42;;;;;;;65.97;58.93;;;;;;;;;;5157993;27;20190;-90
2022/01/09 12:43:11;;;;;;;41.73;37.43;;;;;;;;;;5157710;27;20246;-90
2022/01/09 12:45:39;;;;;;;40.33;36.07;;;;;;;;;;5157609;27;20324;-91
2022/01/09 12:48:07;;;;;;;26.93;24.20;;;;;;;;;;5157705;27;20662;-89
2022/01/09 12:50:36;;;;;;;19.67;17.77;;;;;;;;;;5157680;27;20201;-90
2022/01/09 12:53:13;;;;;;;20.63;18.67;;;;;;;;;;5157691;27;20225;-90
2022/01/09 12:56:00;;;;;;;23.87;21.47;;;;;;;;;;5158124;27;20189;-89
2022/01/09 12:58:30;;;;;;;16.83;15.17;;;;;;;;;;5157964;27;20189;-90
2022/01/09 13:00:59;;;;;;;12.63;11.37;;;;;;;;;;5157493;27;20194;-91
2022/01/09 13:03:30;;;;;;;8.47;7.67;;;;;;;;;;5157656;27;20301;-90
2022/01/09 13:05:59;;;;;;;12.27;10.90;;;;;;;;;;5157532;27;20201;-90
2022/01/09 13:08:27;;;;;;;10.83;9.93;;;;;;;;;;5157628;27;20586;-91
2022/01/09 13:10:59;;;;;;;16.73;13.37;;;;;;;;;;5154750;27;20277;-90
2022/01/09 13:13:29;;;;;;;17.07;13.87;;;;;;;;;;5157681;27;20204;-90
2022/01/09 13:15:57;;;;;;;12.40;11.10;;;;;;;;;;5157302;27;20194;-92
2022/01/09 13:18:39;;;;;;;9.60;8.60;;;;;;;;;;5157144;27;20612;-91
2022/01/09 13:21:16;;;;;;;22.07;19.67;;;;;;;;;;5157351;27;20221;-90
2022/01/09 13:24:01;;;;;;;19.90;18.00;;;;;;;;;;5156788;27;20233;-90
2022/01/09 13:26:30;;;;;;;11.67;10.30;;;;;;;;;;5157134;27;20212;-91
2022/01/09 13:29:00;;;;;;;9.83;8.83;;;;;;;;;;5157048;27;20187;-93
2022/01/09 13:31:34;;;;;;;7.80;7.10;;;;;;;;;;5157044;27;20549;-91
2022/01/09 13:34:04;;;;;;;7.20;5.80;;;;;;;;;;5156184;27;20194;-90
2022/01/09 13:36:34;;;;;;;7.90;7.10;;;;;;;;;;5157455;27;20175;-90
2022/01/09 13:39:04;;;;;;;6.30;5.73;;;;;;;;;;5157047;27;20650;-90
2022/01/09 13:41:33;;;;;;;6.97;5.77;;;;;;;;;;5156891;27;20202;-89
2022/01/09 13:44:02;;;;;;;6.20;5.60;;;;;;;;;;5156729;27;20273;-88
2022/01/09 13:46:30;;;;;;;9.00;8.20;;;;;;;;;;5156343;27;20228;-89
2022/01/09 13:48:57;;;;;;;14.67;13.17;;;;;;;;;;5156540;27;20190;-89
2022/01/09 13:51:41;;;;;;;20.57;18.67;;;;;;;;;;5156828;27;20274;-88
2022/01/09 13:54:10;;;;;;;12.03;10.97;;;;;;;;;;5156276;27;20197;-89
2022/01/09 13:56:38;;;;;;;10.90;9.90;;;;;;;;;;5156277;27;20284;-88
2022/01/09 13:59:06;;;;;;;11.50;10.40;;;;;;;;;;5156156;27;20186;-88
2022/01/09 14:01:46;;;;;;;10.50;9.60;;;;;;;;;;5154702;27;20262;-88
2022/01/09 14:04:15;;;;;;;9.93;9.03;;;;;;;;;;5155849;27;20213;-88
2022/01/09 14:06:42;;;;;;;22.63;20.63;;;;;;;;;;5155980;27;20194;-89
2022/01/09 14:09:10;;;;;;;11.13;10.23;;;;;;;;;;5156081;27;20236;-89
2022/01/09 14:11:37;;;;;;;8.73;6.60;;;;;;;;;;5155973;27;20296;-89
2022/01/09 14:14:06;;;;;;;8.10;7.30;;;;;;;;;;5156033;27;20185;-89
2022/01/09 14:16:36;;;;;;;13.13;11.77;;;;;;;;;;5156276;27;20301;-89
2022/01/09 14:19:06;;;;;;;13.20;12.00;;;;;;;;;;5156542;27;20574;-88
2022/01/09 14:21:35;;;;;;;10.07;8.00;;;;;;;;;;5155709;27;20209;-89
2022/01/09 14:24:07;;;;;;;10.37;9.13;;;;;;;;;;5155974;27;20221;-89
2022/01/09 14:26:35;;;;;;;15.80;14.07;;;;;;;;;;5156164;27;20198;-89
2022/01/09 14:29:02;;;;;;;67.97;14.87;;;;;;;;;;5155624;27;20217;-89
2022/01/09 14:31:36;;;;;;;11.33;7.13;;;;;;;;;;5155655;27;20200;-89
2022/01/09 14:34:04;;;;;;;7.83;6.80;;;;;;;;;;5156068;27;20638;-89
2022/01/09 14:36:33;;;;;;;8.70;6.53;;;;;;;;;;5154618;27;20190;-88
2022/01/09 14:39:02;;;;;;;8.57;7.50;;;;;;;;;;5155477;27;20276;-87
2022/01/09 14:41:30;;;;;;;15.40;9.00;;;;;;;;;;5155442;27;20198;-89
2022/01/09 14:43:58;;;;;;;11.80;9.23;;;;;;;;;;5156173;27;20308;-89